Buckley, WA (98321)

01:10 PM PST on noiembrie 26, 2014 (GMT -0800)
Evergreen Pond II | Change Station
CLOSE
Current Station
Staţie meteo personală
Location: Buckley, WA
Elevation: 705 ft
Nearby Weather Stations
Consiliere activă: Flood Warning, Areal Flood Watch Anunţuri active: Record Report

Elev 705 ft 47.15 °N, 122.08 °W | Updated 36 seconds ago

Cer acoperit
Cer acoperit
60.9 °F
Feels Like 60.9 °F
N
2.0
Vânt variabil Vânt from SV
Gusts 2.0 mph

astăzi
High -- | Low -- °F
--% Chance of Precip.
Ieri
High -- | Low -- °F
Precip. -- inch
7:27 AM 4:23 PM
Semilună în creştere, 22% visible
Presiunea 30.09 inch
Vizibilitatea 10.0 mile
Nori Cer acoperit 5000 ft
Punctul de rouă 51 °F
Umiditatea 71%
Precipitaţii 0.00 inch
Adâncimea zăpezii Not available.
UV 1 out of 12
Pollen .10 out of 12
Calitatea aerului Not available.
Flu Activity Not available.
METAR KTCM 261958Z AUTO 19005KT 10SM OVC050 15/13 A3008 RMK AO2 SLP190 T01460133 $

More Conditions Fewer Conditions

Presiunea 30.09 inch
Vizibilitatea 10.0 mile
Nori Cer acoperit 5000 ft
Punctul de rouă 51 °F
Umiditatea 71%
Precipitaţii 0.00 inch
Adâncimea zăpezii Not available.
UV 1 out of 12
Pollen .10 out of 12
Calitatea aerului Not available.
Flu Activity Not available.
METAR KTCM 261958Z AUTO 19005KT 10SM OVC050 15/13 A3008 RMK AO2 SLP190 T01460133 $

More Conditions Fewer Conditions

10-Day Weather Forecast

Almanac

Astronomie

Nov. 26, 2014 Răsărit Apus
Timpul Actual
Crepusculul Civil
Crepusculul nautic
Răsărit Astronomic
Luna
Durata zilei lumină
Lungimea zilei
Tomorrow will be .
, % of the Moon is Illuminated

Extremele de azi

State Highs State Lows

Community

WunderPhotos

Upload Photos

1,773,871 photos uploaded!

WunderBlogs® & News

Nearby

Calitatea aerului

  Calitatea aerului Index de calitate a aerului Poluat
Not available.

Adâncimea zapezii

Station Depth Elevation

Earthquake Activity

Oraş Distance Mag. Time & Date
Minimum magnitude displayed is 2.5.

Coastal Water Temperatures

Locul Temperatura

Nearby Weather Stations